sensor_id;sensor_type;location;lat;lon;timestamp;pressure;altitude;pressure_sealevel;temperature;humidity
54554;BME280;40450;55.848;-3.572;2023-05-23T00:00:41;100608.09;;;14.13;61.47
54554;BME280;40450;55.848;-3.572;2023-05-23T00:05:40;100608.03;;;15.37;58.98
54554;BME280;40450;55.848;-3.572;2023-05-23T00:08:11;100612.16;;;15.56;58.94
54554;BME280;40450;55.848;-3.572;2023-05-23T00:10:41;100613.77;;;15.82;55.68
54554;BME280;40450;55.848;-3.572;2023-05-23T00:13:11;100615.88;;;15.68;55.84
54554;BME280;40450;55.848;-3.572;2023-05-23T00:15:42;100618.13;;;14.84;58.44
54554;BME280;40450;55.848;-3.572;2023-05-23T00:18:12;100620.73;;;15.29;57.41
54554;BME280;40450;55.848;-3.572;2023-05-23T00:20:42;100623.74;;;15.42;57.63
54554;BME280;40450;55.848;-3.572;2023-05-23T00:23:13;100627.07;;;15.61;56.25
54554;BME280;40450;55.848;-3.572;2023-05-23T00:25:48;100623.25;;;16.04;56.01
54554;BME280;40450;55.848;-3.572;2023-05-23T00:28:18;100622.58;;;15.90;54.95
54554;BME280;40450;55.848;-3.572;2023-05-23T00:30:49;100617.48;;;15.18;56.65
54554;BME280;40450;55.848;-3.572;2023-05-23T00:33:19;100616.08;;;14.78;57.79
54554;BME280;40450;55.848;-3.572;2023-05-23T00:35:45;100620.04;;;14.62;58.78
54554;BME280;40450;55.848;-3.572;2023-05-23T00:38:15;100614.38;;;14.86;58.32
54554;BME280;40450;55.848;-3.572;2023-05-23T00:40:45;100616.05;;;14.30;59.96
54554;BME280;40450;55.848;-3.572;2023-05-23T00:43:15;100612.64;;;14.13;60.71
54554;BME280;40450;55.848;-3.572;2023-05-23T00:45:46;100612.09;;;14.02;61.54
54554;BME280;40450;55.848;-3.572;2023-05-23T00:48:17;100606.48;;;14.53;59.86
54554;BME280;40450;55.848;-3.572;2023-05-23T00:50:47;100604.40;;;14.43;59.85
54554;BME280;40450;55.848;-3.572;2023-05-23T00:53:17;100609.94;;;14.08;61.35
54554;BME280;40450;55.848;-3.572;2023-05-23T00:55:47;100605.33;;;14.44;60.09
54554;BME280;40450;55.848;-3.572;2023-05-23T00:58:18;100615.00;;;14.12;61.03
54554;BME280;40450;55.848;-3.572;2023-05-23T01:00:48;100625.66;;;13.99;61.58
54554;BME280;40450;55.848;-3.572;2023-05-23T01:03:19;100625.16;;;13.25;63.86
54554;BME280;40450;55.848;-3.572;2023-05-23T01:05:49;100628.26;;;13.78;62.74
54554;BME280;40450;55.848;-3.572;2023-05-23T01:08:20;100620.48;;;13.92;62.43
54554;BME280;40450;55.848;-3.572;2023-05-23T01:10:50;100605.30;;;13.83;62.62
54554;BME280;40450;55.848;-3.572;2023-05-23T01:13:26;100603.82;;;13.68;63.48
54554;BME280;40450;55.848;-3.572;2023-05-23T01:15:54;100609.49;;;13.83;63.19
54554;BME280;40450;55.848;-3.572;2023-05-23T01:18:26;100611.77;;;13.85;63.49
54554;BME280;40450;55.848;-3.572;2023-05-23T01:20:53;100609.51;;;13.43;64.06
54554;BME280;40450;55.848;-3.572;2023-05-23T01:26:02;100609.96;;;14.11;62.97
54554;BME280;40450;55.848;-3.572;2023-05-23T01:28:26;100610.58;;;13.51;63.85
54554;BME280;40450;55.848;-3.572;2023-05-23T01:30:57;100611.80;;;13.32;64.81
54554;BME280;40450;55.848;-3.572;2023-05-23T01:33:24;100613.04;;;13.22;64.76
54554;BME280;40450;55.848;-3.572;2023-05-23T01:35:55;100613.17;;;12.79;66.53
54554;BME280;40450;55.848;-3.572;2023-05-23T01:38:24;100610.42;;;12.82;66.35
54554;BME280;40450;55.848;-3.572;2023-05-23T01:40:54;100613.78;;;12.19;68.37
54554;BME280;40450;55.848;-3.572;2023-05-23T01:43:24;100612.26;;;12.20;68.10
54554;BME280;40450;55.848;-3.572;2023-05-23T01:45:55;100614.31;;;12.00;68.48
54554;BME280;40450;55.848;-3.572;2023-05-23T01:48:26;100620.60;;;11.92;69.21
54554;BME280;40450;55.848;-3.572;2023-05-23T01:50:55;100620.89;;;11.97;69.17
54554;BME280;40450;55.848;-3.572;2023-05-23T01:53:26;100620.53;;;11.49;70.89
54554;BME280;40450;55.848;-3.572;2023-05-23T01:55:56;100626.54;;;11.67;70.59
54554;BME280;40450;55.848;-3.572;2023-05-23T01:58:28;100624.53;;;11.57;71.01
54554;BME280;40450;55.848;-3.572;2023-05-23T02:01:02;100620.38;;;11.32;71.87
54554;BME280;40450;55.848;-3.572;2023-05-23T02:03:32;100621.11;;;11.90;70.35
54554;BME280;40450;55.848;-3.572;2023-05-23T02:06:03;100628.54;;;11.63;70.77
54554;BME280;40450;55.848;-3.572;2023-05-23T02:08:33;100630.33;;;11.68;70.65
54554;BME280;40450;55.848;-3.572;2023-05-23T02:11:04;100629.63;;;11.09;71.97
54554;BME280;40450;55.848;-3.572;2023-05-23T02:13:34;100629.51;;;10.64;73.44
54554;BME280;40450;55.848;-3.572;2023-05-23T02:16:05;100629.26;;;10.49;74.00
54554;BME280;40450;55.848;-3.572;2023-05-23T02:18:35;100628.36;;;10.29;74.65
54554;BME280;40450;55.848;-3.572;2023-05-23T02:21:00;100631.54;;;10.31;74.38
54554;BME280;40450;55.848;-3.572;2023-05-23T02:23:35;100633.07;;;9.88;75.58
54554;BME280;40450;55.848;-3.572;2023-05-23T02:26:06;100629.19;;;10.27;74.82
54554;BME280;40450;55.848;-3.572;2023-05-23T02:28:36;100629.37;;;10.15;74.81
54554;BME280;40450;55.848;-3.572;2023-05-23T02:31:06;100637.05;;;10.29;74.19
54554;BME280;40450;55.848;-3.572;2023-05-23T02:33:37;100638.24;;;10.35;73.70
54554;BME280;40450;55.848;-3.572;2023-05-23T02:36:07;100633.40;;;10.32;74.19
54554;BME280;40450;55.848;-3.572;2023-05-23T02:38:32;100628.16;;;10.35;74.42
54554;BME280;40450;55.848;-3.572;2023-05-23T02:41:08;100625.94;;;10.23;74.59
54554;BME280;40450;55.848;-3.572;2023-05-23T02:43:38;100623.44;;;10.43;74.23
54554;BME280;40450;55.848;-3.572;2023-05-23T02:46:09;100620.69;;;9.72;76.05
54554;BME280;40450;55.848;-3.572;2023-05-23T02:48:39;100619.01;;;9.80;76.04
54554;BME280;40450;55.848;-3.572;2023-05-23T02:51:10;100628.14;;;9.70;76.44
54554;BME280;40450;55.848;-3.572;2023-05-23T02:53:40;100635.97;;;9.95;75.80
54554;BME280;40450;55.848;-3.572;2023-05-23T02:56:06;100636.35;;;10.11;75.36
54554;BME280;40450;55.848;-3.572;2023-05-23T02:58:41;100638.38;;;10.39;74.89
54554;BME280;40450;55.848;-3.572;2023-05-23T03:01:11;100632.59;;;10.47;74.29
54554;BME280;40450;55.848;-3.572;2023-05-23T03:03:36;100626.88;;;10.29;74.78
54554;BME280;40450;55.848;-3.572;2023-05-23T03:06:11;100620.79;;;10.30;74.98
54554;BME280;40450;55.848;-3.572;2023-05-23T03:08:37;100605.95;;;10.20;74.89
54554;BME280;40450;55.848;-3.572;2023-05-23T03:11:13;100607.61;;;10.10;74.77
54554;BME280;40450;55.848;-3.572;2023-05-23T03:13:38;100606.49;;;9.55;76.05
54554;BME280;40450;55.848;-3.572;2023-05-23T03:16:08;100602.66;;;9.63;75.63
54554;BME280;40450;55.848;-3.572;2023-05-23T03:18:39;100602.71;;;9.30;77.27
54554;BME280;40450;55.848;-3.572;2023-05-23T03:21:15;100599.95;;;8.89;78.71
54554;BME280;40450;55.848;-3.572;2023-05-23T03:23:45;100601.41;;;8.64;79.82
54554;BME280;40450;55.848;-3.572;2023-05-23T03:26:15;100602.85;;;8.36;80.73
54554;BME280;40450;55.848;-3.572;2023-05-23T03:28:46;100594.00;;;8.28;80.90
54554;BME280;40450;55.848;-3.572;2023-05-23T03:31:16;100589.49;;;8.67;80.31
54554;BME280;40450;55.848;-3.572;2023-05-23T03:33:47;100587.64;;;8.58;80.17
54554;BME280;40450;55.848;-3.572;2023-05-23T03:36:17;100585.88;;;8.93;79.44
54554;BME280;40450;55.848;-3.572;2023-05-23T03:38:43;100586.35;;;8.55;80.44
54554;BME280;40450;55.848;-3.572;2023-05-23T03:41:18;100584.47;;;8.78;79.93
54554;BME280;40450;55.848;-3.572;2023-05-23T03:43:48;100582.50;;;8.46;80.71
54554;BME280;40450;55.848;-3.572;2023-05-23T03:46:19;100577.24;;;8.32;81.41
54554;BME280;40450;55.848;-3.572;2023-05-23T03:48:49;100576.48;;;8.60;80.26
54554;BME280;40450;55.848;-3.572;2023-05-23T03:51:19;100582.61;;;8.46;81.02
54554;BME280;40450;55.848;-3.572;2023-05-23T03:53:45;100583.61;;;8.69;80.44
54554;BME280;40450;55.848;-3.572;2023-05-23T03:56:20;100586.69;;;9.01;79.49
54554;BME280;40450;55.848;-3.572;2023-05-23T03:58:51;100595.52;;;9.47;78.15
54554;BME280;40450;55.848;-3.572;2023-05-23T04:01:21;100600.84;;;10.05;76.38
54554;BME280;40450;55.848;-3.572;2023-05-23T04:03:51;100607.26;;;9.84;76.57
54554;BME280;40450;55.848;-3.572;2023-05-23T04:06:22;100602.91;;;9.18;78.32
54554;BME280;40450;55.848;-3.572;2023-05-23T04:08:46;100599.28;;;9.98;76.80
54554;BME280;40450;55.848;-3.572;2023-05-23T04:11:17;100600.01;;;8.90;79.27
54554;BME280;40450;55.848;-3.572;2023-05-23T04:13:52;100601.58;;;9.15;79.12
54554;BME280;40450;55.848;-3.572;2023-05-23T04:16:23;100602.33;;;9.35;78.48
54554;BME280;40450;55.848;-3.572;2023-05-23T04:18:53;100601.68;;;9.61;77.10
54554;BME280;40450;55.848;-3.572;2023-05-23T04:21:23;100600.42;;;10.66;76.85
54554;BME280;40450;55.848;-3.572;2023-05-23T04:23:54;100602.62;;;11.13;72.98
54554;BME280;40450;55.848;-3.572;2023-05-23T04:26:24;100606.75;;;11.93;73.56
54554;BME280;40450;55.848;-3.572;2023-05-23T04:28:54;100604.83;;;12.31;72.96
54554;BME280;40450;55.848;-3.572;2023-05-23T04:31:25;100603.59;;;11.89;70.11
54554;BME280;40450;55.848;-3.572;2023-05-23T04:33:55;100601.36;;;10.81;73.31
54554;BME280;40450;55.848;-3.572;2023-05-23T04:36:21;100598.80;;;10.10;75.49
54554;BME280;40450;55.848;-3.572;2023-05-23T04:38:56;100594.31;;;9.25;78.39
54554;BME280;40450;55.848;-3.572;2023-05-23T04:41:21;100587.48;;;9.06;79.54
54554;BME280;40450;55.848;-3.572;2023-05-23T04:43:56;100588.28;;;9.47;78.73
54554;BME280;40450;55.848;-3.572;2023-05-23T04:46:21;100591.74;;;9.96;77.65
54554;BME280;40450;55.848;-3.572;2023-05-23T04:48:57;100595.73;;;10.33;76.96
54554;BME280;40450;55.848;-3.572;2023-05-23T04:51:27;100594.69;;;10.71;75.77
54554;BME280;40450;55.848;-3.572;2023-05-23T04:53:57;100595.97;;;10.96;75.40
54554;BME280;40450;55.848;-3.572;2023-05-23T04:56:27;100592.78;;;10.91;75.40
54554;BME280;40450;55.848;-3.572;2023-05-23T04:58:58;100592.12;;;10.92;75.19
54554;BME280;40450;55.848;-3.572;2023-05-23T05:01:23;100597.53;;;11.51;74.52
54554;BME280;40450;55.848;-3.572;2023-05-23T05:03:59;100598.19;;;11.35;74.12
54554;BME280;40450;55.848;-3.572;2023-05-23T05:06:29;100598.45;;;11.48;74.07
54554;BME280;40450;55.848;-3.572;2023-05-23T05:08:54;100599.96;;;12.02;73.53
54554;BME280;40450;55.848;-3.572;2023-05-23T05:11:30;100592.70;;;12.75;72.92
54554;BME280;40450;55.848;-3.572;2023-05-23T05:14:00;100590.73;;;12.83;71.22
54554;BME280;40450;55.848;-3.572;2023-05-23T05:16:25;100586.59;;;13.33;70.11
54554;BME280;40450;55.848;-3.572;2023-05-23T05:18:56;100591.54;;;12.30;70.57
54554;BME280;40450;55.848;-3.572;2023-05-23T05:21:26;100586.35;;;12.32;71.11
54554;BME280;40450;55.848;-3.572;2023-05-23T05:23:58;100584.87;;;12.12;71.60
54554;BME280;40450;55.848;-3.572;2023-05-23T05:26:32;100581.96;;;12.89;68.83
54554;BME280;40450;55.848;-3.572;2023-05-23T05:29:02;100582.20;;;13.30;68.62
54554;BME280;40450;55.848;-3.572;2023-05-23T05:31:32;100580.23;;;12.98;69.04
54554;BME280;40450;55.848;-3.572;2023-05-23T05:34:03;100576.87;;;13.44;69.09
54554;BME280;40450;55.848;-3.572;2023-05-23T05:36:33;100574.57;;;12.79;69.38
54554;BME280;40450;55.848;-3.572;2023-05-23T05:39:03;100574.48;;;13.24;68.86
54554;BME280;40450;55.848;-3.572;2023-05-23T05:41:29;100572.92;;;13.08;68.78
54554;BME280;40450;55.848;-3.572;2023-05-23T05:44:04;100573.37;;;12.85;69.53
54554;BME280;40450;55.848;-3.572;2023-05-23T05:46:34;100578.66;;;13.16;68.16
54554;BME280;40450;55.848;-3.572;2023-05-23T05:48:59;100581.30;;;14.04;67.95
54554;BME280;40450;55.848;-3.572;2023-05-23T05:51:35;100580.51;;;13.35;66.11
54554;BME280;40450;55.848;-3.572;2023-05-23T05:54:00;100582.82;;;13.92;65.73
54554;BME280;40450;55.848;-3.572;2023-05-23T05:56:31;100585.80;;;13.25;66.32
54554;BME280;40450;55.848;-3.572;2023-05-23T05:59:06;100591.99;;;13.72;65.96
54554;BME280;40450;55.848;-3.572;2023-05-23T06:01:36;100601.56;;;12.36;68.49
54554;BME280;40450;55.848;-3.572;2023-05-23T06:04:07;100599.59;;;12.56;67.65
54554;BME280;40450;55.848;-3.572;2023-05-23T06:06:37;100597.51;;;12.71;68.49
54554;BME280;40450;55.848;-3.572;2023-05-23T06:09:07;100596.25;;;12.64;68.38
54554;BME280;40450;55.848;-3.572;2023-05-23T06:11:33;100595.44;;;13.00;68.09
54554;BME280;40450;55.848;-3.572;2023-05-23T06:14:08;100592.12;;;12.86;67.81
54554;BME280;40450;55.848;-3.572;2023-05-23T06:16:38;100594.59;;;11.85;70.38
54554;BME280;40450;55.848;-3.572;2023-05-23T06:19:11;100591.73;;;11.91;70.92
54554;BME280;40450;55.848;-3.572;2023-05-23T06:21:34;100588.83;;;12.17;70.15
54554;BME280;40450;55.848;-3.572;2023-05-23T06:24:09;100587.10;;;12.06;70.41
54554;BME280;40450;55.848;-3.572;2023-05-23T06:26:43;100586.47;;;12.45;69.89
54554;BME280;40450;55.848;-3.572;2023-05-23T06:29:11;100588.52;;;12.90;68.66
54554;BME280;40450;55.848;-3.572;2023-05-23T06:31:44;100590.41;;;13.05;67.92
54554;BME280;40450;55.848;-3.572;2023-05-23T06:34:06;100589.91;;;13.33;68.01
54554;BME280;40450;55.848;-3.572;2023-05-23T06:36:37;100592.69;;;13.67;66.75
54554;BME280;40450;55.848;-3.572;2023-05-23T06:39:15;100595.11;;;13.89;66.62
54554;BME280;40450;55.848;-3.572;2023-05-23T06:41:42;100591.71;;;13.97;66.09
54554;BME280;40450;55.848;-3.572;2023-05-23T06:44:07;100586.19;;;13.52;66.26
54554;BME280;40450;55.848;-3.572;2023-05-23T06:46:46;100585.96;;;13.27;66.92
54554;BME280;40450;55.848;-3.572;2023-05-23T06:49:08;100583.12;;;13.24;67.56
54554;BME280;40450;55.848;-3.572;2023-05-23T06:51:39;100587.73;;;13.37;67.41
54554;BME280;40450;55.848;-3.572;2023-05-23T06:54:09;100590.34;;;14.08;66.60
54554;BME280;40450;55.848;-3.572;2023-05-23T06:56:47;100591.74;;;13.78;65.83
54554;BME280;40450;55.848;-3.572;2023-05-23T06:59:18;100593.80;;;14.03;65.08
54554;BME280;40450;55.848;-3.572;2023-05-23T07:01:45;100595.87;;;13.72;65.43
54554;BME280;40450;55.848;-3.572;2023-05-23T07:04:15;100595.41;;;14.19;64.80
54554;BME280;40450;55.848;-3.572;2023-05-23T07:06:46;100598.83;;;14.34;64.20
54554;BME280;40450;55.848;-3.572;2023-05-23T07:09:11;100601.04;;;14.46;63.78
54554;BME280;40450;55.848;-3.572;2023-05-23T07:11:47;100604.98;;;13.40;65.65
54554;BME280;40450;55.848;-3.572;2023-05-23T07:14:20;100610.00;;;13.93;65.83
54554;BME280;40450;55.848;-3.572;2023-05-23T07:16:42;100604.51;;;14.12;66.03
54554;BME280;40450;55.848;-3.572;2023-05-23T07:19:20;100601.55;;;13.21;67.70
54554;BME280;40450;55.848;-3.572;2023-05-23T07:21:51;100609.28;;;13.32;68.36
54554;BME280;40450;55.848;-3.572;2023-05-23T07:24:18;100603.61;;;13.42;67.21
54554;BME280;40450;55.848;-3.572;2023-05-23T07:26:49;100600.54;;;13.64;66.89
54554;BME280;40450;55.848;-3.572;2023-05-23T07:29:19;100597.17;;;13.43;68.07
54554;BME280;40450;55.848;-3.572;2023-05-23T07:31:52;100597.33;;;13.85;67.15
54554;BME280;40450;55.848;-3.572;2023-05-23T07:34:22;100593.96;;;13.86;66.56
54554;BME280;40450;55.848;-3.572;2023-05-23T07:36:50;100589.74;;;14.24;65.88
54554;BME280;40450;55.848;-3.572;2023-05-23T07:39:23;100591.50;;;13.81;65.65
54554;BME280;40450;55.848;-3.572;2023-05-23T07:41:54;100594.91;;;13.82;66.58
54554;BME280;40450;55.848;-3.572;2023-05-23T07:44:18;100601.90;;;13.97;65.71
54554;BME280;40450;55.848;-3.572;2023-05-23T07:46:55;100597.34;;;14.45;65.31
54554;BME280;40450;55.848;-3.572;2023-05-23T07:49:25;100603.37;;;13.32;68.56
54554;BME280;40450;55.848;-3.572;2023-05-23T07:51:47;100610.02;;;13.84;67.72
54554;BME280;40450;55.848;-3.572;2023-05-23T07:54:25;100609.59;;;13.97;67.41
54554;BME280;40450;55.848;-3.572;2023-05-23T07:56:53;100600.93;;;13.99;66.90
54554;BME280;40450;55.848;-3.572;2023-05-23T07:59:23;100604.24;;;13.66;67.98
54554;BME280;40450;55.848;-3.572;2023-05-23T08:01:48;100600.20;;;13.32;68.08
54554;BME280;40450;55.848;-3.572;2023-05-23T08:04:26;100598.90;;;13.46;68.13
54554;BME280;40450;55.848;-3.572;2023-05-23T08:06:48;100605.33;;;13.34;68.25
54554;BME280;40450;55.848;-3.572;2023-05-23T08:09:23;100607.00;;;13.35;67.70
54554;BME280;40450;55.848;-3.572;2023-05-23T08:11:57;100600.08;;;13.77;67.41
54554;BME280;40450;55.848;-3.572;2023-05-23T08:14:19;100602.47;;;13.84;66.62
54554;BME280;40450;55.848;-3.572;2023-05-23T08:16:57;100600.60;;;14.40;66.29
54554;BME280;40450;55.848;-3.572;2023-05-23T08:19:19;100601.13;;;14.13;66.49
54554;BME280;40450;55.848;-3.572;2023-05-23T08:21:58;100599.59;;;13.97;66.89
54554;BME280;40450;55.848;-3.572;2023-05-23T08:24:28;100593.19;;;14.77;65.57
54554;BME280;40450;55.848;-3.572;2023-05-23T08:26:58;100591.12;;;15.32;64.50
54554;BME280;40450;55.848;-3.572;2023-05-23T08:29:21;100589.31;;;14.66;64.76
54554;BME280;40450;55.848;-3.572;2023-05-23T08:31:59;100585.14;;;14.15;65.46
54554;BME280;40450;55.848;-3.572;2023-05-23T08:34:21;100583.81;;;13.92;65.96
54554;BME280;40450;55.848;-3.572;2023-05-23T08:37:00;100582.63;;;15.13;64.70
54554;BME280;40450;55.848;-3.572;2023-05-23T08:39:30;100586.49;;;15.28;65.41
54554;BME280;40450;55.848;-3.572;2023-05-23T08:41:53;100588.10;;;15.23;63.43
54554;BME280;40450;55.848;-3.572;2023-05-23T08:44:27;100589.96;;;15.60;61.97
54554;BME280;40450;55.848;-3.572;2023-05-23T08:47:03;100594.42;;;14.49;63.02
54554;BME280;40450;55.848;-3.572;2023-05-23T08:49:31;100594.49;;;14.33;64.25
54554;BME280;40450;55.848;-3.572;2023-05-23T08:51:58;100591.19;;;14.92;61.98
54554;BME280;40450;55.848;-3.572;2023-05-23T08:54:32;100598.73;;;12.03;69.35
54554;BME280;40450;55.848;-3.572;2023-05-23T08:57:03;100590.58;;;10.52;74.50
54554;BME280;40450;55.848;-3.572;2023-05-23T08:59:26;100584.15;;;12.72;69.70
54554;BME280;40450;55.848;-3.572;2023-05-23T09:02:07;100585.48;;;10.30;75.32
54554;BME280;40450;55.848;-3.572;2023-05-23T09:04:34;100577.38;;;13.18;67.53
54554;BME280;40450;55.848;-3.572;2023-05-23T09:07:02;100580.29;;;11.78;72.00
54554;BME280;40450;55.848;-3.572;2023-05-23T09:09:32;100578.31;;;10.28;76.97
54554;BME280;40450;55.848;-3.572;2023-05-23T09:12:05;100580.94;;;9.19;79.32
54554;BME280;40450;55.848;-3.572;2023-05-23T09:14:35;100577.75;;;10.81;75.08
54554;BME280;40450;55.848;-3.572;2023-05-23T09:17:05;100569.73;;;12.31;71.29
54554;BME280;40450;55.848;-3.572;2023-05-23T09:19:41;100573.07;;;12.01;70.93
54554;BME280;40450;55.848;-3.572;2023-05-23T09:22:03;100569.28;;;9.27;77.83
54554;BME280;40450;55.848;-3.572;2023-05-23T09:24:33;100569.46;;;8.60;81.85
54554;BME280;40450;55.848;-3.572;2023-05-23T09:27:04;100560.82;;;10.05;78.51
54554;BME280;40450;55.848;-3.572;2023-05-23T09:29:29;100561.54;;;9.72;78.01
54554;BME280;40450;55.848;-3.572;2023-05-23T09:32:09;100561.02;;;10.89;76.26
54554;BME280;40450;55.848;-3.572;2023-05-23T09:34:35;100566.02;;;8.41;82.95
54554;BME280;40450;55.848;-3.572;2023-05-23T09:37:05;100562.10;;;10.65;78.20
54554;BME280;40450;55.848;-3.572;2023-05-23T09:39:36;100563.14;;;11.18;74.12
54554;BME280;40450;55.848;-3.572;2023-05-23T09:42:06;100559.48;;;10.67;76.26
54554;BME280;40450;55.848;-3.572;2023-05-23T09:44:41;100558.97;;;10.64;75.98
54554;BME280;40450;55.848;-3.572;2023-05-23T09:47:06;100559.72;;;10.33;76.75
54554;BME280;40450;55.848;-3.572;2023-05-23T09:49:38;100557.77;;;11.77;74.10
54554;BME280;40450;55.848;-3.572;2023-05-23T09:52:03;100545.73;;;12.56;72.25
54554;BME280;40450;55.848;-3.572;2023-05-23T09:54:38;100537.61;;;12.34;71.64
54554;BME280;40450;55.848;-3.572;2023-05-23T09:57:08;100539.58;;;11.71;72.04
54554;BME280;40450;55.848;-3.572;2023-05-23T09:59:41;100536.18;;;11.57;73.29
54554;BME280;40450;55.848;-3.572;2023-05-23T10:02:11;100543.51;;;11.97;71.58
54554;BME280;40450;55.848;-3.572;2023-05-23T10:04:40;100533.15;;;13.00;68.69
54554;BME280;40450;55.848;-3.572;2023-05-23T10:07:12;100529.99;;;12.64;69.25
54554;BME280;40450;55.848;-3.572;2023-05-23T10:09:41;100531.41;;;13.09;66.64
54554;BME280;40450;55.848;-3.572;2023-05-23T10:14:44;100536.18;;;13.82;66.04
54554;BME280;40450;55.848;-3.572;2023-05-23T10:17:09;100540.40;;;15.16;63.14
54554;BME280;40450;55.848;-3.572;2023-05-23T10:19:43;100540.64;;;12.33;69.83
54554;BME280;40450;55.848;-3.572;2023-05-23T10:22:13;100541.23;;;13.88;66.98
54554;BME280;40450;55.848;-3.572;2023-05-23T10:24:44;100532.09;;;13.59;67.98
54554;BME280;40450;55.848;-3.572;2023-05-23T10:27:07;100533.53;;;14.11;64.73
54554;BME280;40450;55.848;-3.572;2023-05-23T10:29:37;100535.53;;;14.30;62.37
54554;BME280;40450;55.848;-3.572;2023-05-23T10:32:14;100544.96;;;12.00;69.32
54554;BME280;40450;55.848;-3.572;2023-05-23T10:34:51;100541.87;;;10.58;73.93
54554;BME280;40450;55.848;-3.572;2023-05-23T10:37:17;100537.08;;;13.17;67.18
54554;BME280;40450;55.848;-3.572;2023-05-23T10:39:53;100532.24;;;11.75;71.63
54554;BME280;40450;55.848;-3.572;2023-05-23T10:42:13;100530.97;;;11.64;74.05
54554;BME280;40450;55.848;-3.572;2023-05-23T10:44:39;100529.97;;;13.00;68.00
54554;BME280;40450;55.848;-3.572;2023-05-23T10:47:25;100528.40;;;13.12;68.08
54554;BME280;40450;55.848;-3.572;2023-05-23T10:49:47;100526.07;;;13.26;68.41
54554;BME280;40450;55.848;-3.572;2023-05-23T10:52:16;100539.01;;;9.84;77.88
54554;BME280;40450;55.848;-3.572;2023-05-23T10:54:49;100530.11;;;12.31;69.71
54554;BME280;40450;55.848;-3.572;2023-05-23T10:57:19;100529.01;;;13.68;67.40
54554;BME280;40450;55.848;-3.572;2023-05-23T10:59:42;100518.63;;;11.01;74.69
54554;BME280;40450;55.848;-3.572;2023-05-23T11:02:24;100523.96;;;9.47;80.26
54554;BME280;40450;55.848;-3.572;2023-05-23T11:14:53;100500.27;;;13.47;69.37
54554;BME280;40450;55.848;-3.572;2023-05-23T11:17:15;100492.50;;;14.54;67.48
54554;BME280;40450;55.848;-3.572;2023-05-23T11:22:15;100494.01;;;13.26;68.80
54554;BME280;40450;55.848;-3.572;2023-05-23T11:24:50;100493.23;;;13.43;68.36
54554;BME280;40450;55.848;-3.572;2023-05-23T11:27:26;100496.47;;;12.45;68.00
54554;BME280;40450;55.848;-3.572;2023-05-23T11:29:57;100495.77;;;13.27;66.47
54554;BME280;40450;55.848;-3.572;2023-05-23T11:32:18;100497.83;;;15.01;62.50
54554;BME280;40450;55.848;-3.572;2023-05-23T11:34:52;100493.93;;;16.03;57.87
54554;BME280;40450;55.848;-3.572;2023-05-23T11:37:23;100495.94;;;15.98;57.16
54554;BME280;40450;55.848;-3.572;2023-05-23T11:39:53;100493.65;;;16.80;55.83
54554;BME280;40450;55.848;-3.572;2023-05-23T11:42:24;100493.40;;;16.40;55.97
54554;BME280;40450;55.848;-3.572;2023-05-23T11:44:54;100494.82;;;16.34;54.93
54554;BME280;40450;55.848;-3.572;2023-05-23T11:47:24;100488.37;;;16.32;55.26
54554;BME280;40450;55.848;-3.572;2023-05-23T11:49:54;100478.48;;;17.36;55.18
54554;BME280;40450;55.848;-3.572;2023-05-23T11:52:19;100478.96;;;16.49;56.60
54554;BME280;40450;55.848;-3.572;2023-05-23T11:54:50;100474.70;;;13.58;61.99
54554;BME280;40450;55.848;-3.572;2023-05-23T11:57:26;100478.68;;;12.51;66.52
54554;BME280;40450;55.848;-3.572;2023-05-23T11:59:56;100470.71;;;13.42;66.49
54554;BME280;40450;55.848;-3.572;2023-05-23T12:02:27;100481.69;;;10.99;71.93
54554;BME280;40450;55.848;-3.572;2023-05-23T12:04:57;100484.36;;;11.28;72.04
54554;BME280;40450;55.848;-3.572;2023-05-23T12:07:27;100482.81;;;12.10;70.51
54554;BME280;40450;55.848;-3.572;2023-05-23T12:09:58;100469.85;;;13.44;65.73
54554;BME280;40450;55.848;-3.572;2023-05-23T12:12:23;100478.15;;;13.04;67.12
54554;BME280;40450;55.848;-3.572;2023-05-23T12:14:55;100479.32;;;14.11;62.96
54554;BME280;40450;55.848;-3.572;2023-05-23T12:17:24;100480.48;;;12.50;67.65
54554;BME280;40450;55.848;-3.572;2023-05-23T12:19:54;100472.22;;;14.36;62.86
54554;BME280;40450;55.848;-3.572;2023-05-23T12:22:25;100470.37;;;11.97;71.08
54554;BME280;40450;55.848;-3.572;2023-05-23T12:24:55;100468.94;;;12.35;70.41
54554;BME280;40450;55.848;-3.572;2023-05-23T12:27:27;100464.87;;;14.38;65.52
54554;BME280;40450;55.848;-3.572;2023-05-23T12:30:04;100473.97;;;14.35;65.41
54554;BME280;40450;55.848;-3.572;2023-05-23T12:32:26;100480.72;;;12.29;70.30
54554;BME280;40450;55.848;-3.572;2023-05-23T12:34:57;100477.23;;;12.33;71.15
54554;BME280;40450;55.848;-3.572;2023-05-23T12:37:27;100478.48;;;11.79;72.80
54554;BME280;40450;55.848;-3.572;2023-05-23T12:42:28;100475.53;;;13.15;68.98
54554;BME280;40450;55.848;-3.572;2023-05-23T12:44:59;100475.26;;;14.87;65.65
54554;BME280;40450;55.848;-3.572;2023-05-23T12:47:29;100485.80;;;14.94;62.70
54554;BME280;40450;55.848;-3.572;2023-05-23T12:49:59;100464.35;;;16.00;59.78
54554;BME280;40450;55.848;-3.572;2023-05-23T12:52:30;100467.55;;;15.80;60.28
54554;BME280;40450;55.848;-3.572;2023-05-23T12:55:00;100470.13;;;16.81;58.37
54554;BME280;40450;55.848;-3.572;2023-05-23T12:57:33;100471.83;;;16.86;56.50
54554;BME280;40450;55.848;-3.572;2023-05-23T13:00:01;100463.47;;;17.48;53.30
54554;BME280;40450;55.848;-3.572;2023-05-23T13:02:31;100470.30;;;17.32;55.50
54554;BME280;40450;55.848;-3.572;2023-05-23T13:05:07;100459.60;;;16.05;57.38
54554;BME280;40450;55.848;-3.572;2023-05-23T13:07:32;100467.59;;;14.11;63.30
54554;BME280;40450;55.848;-3.572;2023-05-23T13:10:09;100474.84;;;13.14;68.43
54554;BME280;40450;55.848;-3.572;2023-05-23T13:12:33;100471.73;;;14.47;65.25
54554;BME280;40450;55.848;-3.572;2023-05-23T13:15:05;100475.49;;;15.42;60.45
54554;BME280;40450;55.848;-3.572;2023-05-23T13:17:34;100476.75;;;13.76;67.10